Canefield Airport

Partly cloudy with adjacent showers
23oC (73oF)

Partly cloudy with adjacent showers


Winds: Southerly @ 03kt / 06km/h

Humidity: 83%

Barometric Pressure: 1015 mb

Accumulated Rainfall for January: 15.1 mm

Updated: 18:00 local time (22:00 UTC)

Douglas-Charles Airport

Cloudy with adjacent showers
24oC (75oF)

Cloudy with adjacent showers


Winds: Easterly @ 05kts / 09km/h

Humidity: 80%

Barometric Pressure: 1017 mb

Accumulated Rainfall for January: 75.3 mm

Updated: 20:00 local time (00:00 UTC)

Satellite Imagery

Satellite Imagery
Click image for larger view. (Source: National Hurricane Center).

Aviation Routine Report (METAR)

Douglas-Charles: METAR TDPD 200000Z 10005KT 9999 BKN017 24/21 Q1017=
Canefield: METAR TDCF 192200Z 19003KT 9999 SCT018 23/20 Q1015=